Observations for Trim Market St
| Time | AQI | Temp °C | Hum % | Pres Pa | CO μg/m³ | H₂S μg/m³ | NO μg/m³ | NO₂ μg/m³ | O₃ μg/m³ | SO₂ μg/m³ | PM1 μg/m³ | PM2.5 μg/m³ | PM10 μg/m³ |
|---|---|---|---|---|---|---|---|---|---|---|---|---|---|
| Saturday 11 July 2026 | |||||||||||||
| 09:57 | 1 | 34.2 | 32 | 66,210 | 0 | 0 | 0 | 0 | 3.12 | 0 | 0 | 3.23 | 3.26 |
| 09:56 | 1 | 34.2 | 32 | 66,196 | 0 | 0 | 0 | 0 | 15.59 | 0 | 0 | 2.68 | 2.95 |
| 09:55 | 1 | 34.1 | 32 | 66,202 | 0 | 0 | 0 | 4.4 | 28.7 | 0 | 0.71 | 3.75 | 4.13 |
| 09:50 | 1 | 33.7 | 32 | 66,113 | 0 | 0 | 0 | 0 | 15.62 | 0 | 0 | 3.2 | 3.52 |
| 09:49 | 1 | 33.6 | 33 | 66,106 | 0 | 0 | 0 | 0 | 1.89 | 0 | 1.43 | 3.72 | 4.1 |
| 09:42 | 1 | 32.6 | 35 | 65,993 | 0.27 | 0 | 0 | 0.71 | 8.26 | 0 | 1.43 | 4.17 | 4.59 |
| 09:40 | 1 | 32.3 | 35 | 65,931 | 0.07 | 0 | 0 | 3.63 | 20.62 | 0 | 1.43 | 4.68 | 5.03 |
| 09:37 | 1 | 31.7 | 35 | 65,866 | 0 | 0 | 0 | 0 | 26.91 | 0 | 8.55 | 11.64 | 15.02 |
| 09:36 | 1 | 31.6 | 36 | 65,860 | 0 | 0 | 0 | 0 | 3.69 | 0 | 0 | 4.13 | 5.04 |
| 09:35 | 1 | 31.5 | 36 | 65,860 | 0 | 0 | 0 | 0.98 | 25.44 | 0 | 0.71 | 4.12 | 4.53 |
| 09:34 | 1 | 31.3 | 36 | 65,823 | 0 | 0 | 0 | 0.91 | 7.28 | 0 | 0 | 3.04 | 3.39 |
| 09:33 | 1 | 31.2 | 37 | 65,778 | 0 | 0 | 0 | 2.28 | 3.72 | 0 | 0 | 2.49 | 2.74 |
| 09:32 | 1 | 31 | 37 | 65,717 | 0 | 0 | 0 | 3 | 26.99 | 0 | 0 | 3.01 | 3.31 |
| 09:31 | 1 | 30.9 | 37 | 65,694 | 0 | 0 | 0 | 2.04 | 19.42 | 0 | 0.71 | 3.01 | 3.32 |
| 09:30 | 1 | 30.7 | 37 | 65,674 | 0 | 0 | 0 | 3.01 | 36.07 | 0 | 0 | 2.49 | 2.74 |
| 09:29 | 1 | 30.6 | 37 | 65,651 | 0.14 | 0 | 0 | 2.95 | 26.66 | 0 | 0.71 | 3.56 | 5.05 |
| 09:28 | 1 | 30.5 | 37 | 65,627 | 0 | 0 | 0 | 0.97 | 38.49 | 0 | 0.71 | 3.02 | 3.33 |
| 09:27 | 1 | 30.4 | 36 | 65,594 | 0 | 0 | 0 | 0 | 34.19 | 0 | 0 | 3.03 | 3.33 |
| 09:26 | 1 | 30.4 | 36 | 65,582 | 0 | 0 | 0 | 0 | 26.29 | 0 | 0 | 3.03 | 3.33 |
| 09:25 | 1 | 30.3 | 37 | 65,570 | 0 | 0 | 0 | 0.13 | 37.18 | 0 | 0 | 2.49 | 2.74 |